createdAt,value
2023-02-25T00:01:38.346Z,97421.63
2023-02-25T00:04:04.797Z,97420.81
2023-02-25T00:06:31.282Z,97430.59
2023-02-25T00:08:57.720Z,97430.91
2023-02-25T00:11:25.981Z,97426.50
2023-02-25T00:13:52.558Z,97420.38
2023-02-25T00:16:21.462Z,97420.47
2023-02-25T00:18:48.836Z,97424.97
2023-02-25T00:21:16.749Z,97429.47
2023-02-25T00:23:45.568Z,97433.69
2023-02-25T00:26:12.623Z,97431.53
2023-02-25T00:28:40.350Z,97437.66
2023-02-25T00:31:09.078Z,97428.38
2023-02-25T00:33:35.727Z,97443.81
2023-02-25T00:36:06.154Z,97429.84
2023-02-25T00:38:32.628Z,97434.78
2023-02-25T00:40:59.063Z,97436.59
2023-02-25T00:43:25.509Z,97432.00
2023-02-25T00:45:51.965Z,97439.63
2023-02-25T00:48:18.422Z,97438.81
2023-02-25T00:50:44.841Z,97437.00
2023-02-25T00:53:11.324Z,97437.53
2023-02-25T00:55:37.812Z,97441.13
2023-02-25T00:58:04.368Z,97444.78
2023-02-25T01:00:35.944Z,97441.84
2023-02-25T01:03:07.467Z,97438.75
2023-02-25T01:05:33.969Z,97447.22
2023-02-25T01:08:00.754Z,97451.75
2023-02-25T01:10:28.522Z,97455.50
2023-02-25T01:12:55.060Z,97460.19
2023-02-25T01:15:21.509Z,97462.19
2023-02-25T01:17:47.966Z,97474.50
2023-02-25T01:20:19.760Z,97480.25
2023-02-25T01:22:46.265Z,97477.66
2023-02-25T01:25:13.968Z,97482.59
2023-02-25T01:27:40.503Z,97482.25
2023-02-25T01:30:08.285Z,97481.38
2023-02-25T01:32:35.312Z,97485.53
2023-02-25T01:35:02.363Z,97487.94
2023-02-25T01:37:29.635Z,97485.88
2023-02-25T01:39:56.515Z,97483.75
2023-02-25T01:42:23.785Z,97485.06
2023-02-25T01:45:18.300Z,97475.47
2023-02-25T01:47:48.448Z,97489.09
2023-02-25T01:50:20.126Z,97476.69
2023-02-25T01:52:47.152Z,97477.09
2023-02-25T01:55:13.890Z,97476.75
2023-02-25T01:57:40.600Z,97476.75
2023-02-25T02:00:17.525Z,97482.66
2023-02-25T02:02:47.151Z,97478.16
2023-02-25T02:05:15.155Z,97475.31
2023-02-25T02:07:42.342Z,97475.59
2023-02-25T02:10:09.694Z,97472.88
2023-02-25T02:12:40.209Z,97473.06
2023-02-25T02:15:10.903Z,97464.84
2023-02-25T02:17:58.777Z,97467.94
2023-02-25T02:20:51.411Z,97468.09
2023-02-25T02:23:30.667Z,97471.63
2023-02-25T02:26:03.238Z,97471.69
2023-02-25T02:28:42.792Z,97474.78
2023-02-25T02:31:31.424Z,97473.63
2023-02-25T02:34:06.832Z,97476.03
2023-02-25T02:36:52.068Z,97472.88
2023-02-25T02:40:17.381Z,97480.84
2023-02-25T02:42:52.413Z,97472.69
2023-02-25T02:45:40.714Z,97464.69
2023-02-25T02:48:17.171Z,97462.09
2023-02-25T02:50:55.564Z,97467.59
2023-02-25T02:53:31.900Z,97475.03
2023-02-25T02:56:03.297Z,97474.78
2023-02-25T02:58:35.246Z,97475.72
2023-02-25T03:01:16.240Z,97488.47
2023-02-25T03:03:49.974Z,97483.66
2023-02-25T03:06:24.614Z,97492.75
2023-02-25T03:08:56.749Z,97493.56
2023-02-25T03:11:23.645Z,97491.75
2023-02-25T03:13:51.941Z,97487.94
2023-02-25T03:16:37.452Z,97494.97
2023-02-25T03:19:21.354Z,97493.91
2023-02-25T03:21:56.381Z,97497.50
2023-02-25T03:24:28.914Z,97494.91
2023-02-25T03:26:55.528Z,97489.56
2023-02-25T03:29:25.332Z,97489.47
2023-02-25T03:31:59.304Z,97484.81
2023-02-25T03:34:35.965Z,97492.28
2023-02-25T03:37:15.457Z,97490.31
2023-02-25T03:39:46.863Z,97494.91
2023-02-25T03:42:19.808Z,97502.78
2023-02-25T03:44:50.802Z,97506.03
2023-02-25T03:47:19.454Z,97505.28
2023-02-25T03:50:10.088Z,97511.25
2023-02-25T03:52:40.503Z,97511.00
2023-02-25T03:55:17.198Z,97502.25
2023-02-25T03:57:47.888Z,97507.03
2023-02-25T04:00:22.891Z,97509.03
2023-02-25T04:02:50.401Z,97505.97
2023-02-25T04:05:18.883Z,97509.38
2023-02-25T04:07:45.717Z,97511.00
2023-02-25T04:10:16.854Z,97503.28
2023-02-25T04:12:44.707Z,97510.78
2023-02-25T04:15:14.390Z,97509.09
2023-02-25T04:17:41.185Z,97505.13
2023-02-25T04:20:08.614Z,97503.22
2023-02-25T04:22:35.133Z,97503.84
2023-02-25T04:25:01.634Z,97510.25
2023-02-25T04:27:28.101Z,97513.78
2023-02-25T04:29:54.599Z,97519.22
2023-02-25T04:32:21.283Z,97523.75
2023-02-25T04:34:47.862Z,97522.91
2023-02-25T04:37:14.372Z,97532.75
2023-02-25T04:39:41.466Z,97529.28
2023-02-25T04:42:08.027Z,97529.13
2023-02-25T04:44:34.562Z,97521.13
2023-02-25T04:47:01.161Z,97520.09
2023-02-25T04:49:27.665Z,97528.19
2023-02-25T04:51:54.510Z,97528.59
2023-02-25T04:54:21.595Z,97527.50
2023-02-25T04:56:48.757Z,97522.63
2023-02-25T04:59:17.376Z,97530.47
2023-02-25T05:01:44.062Z,97529.50
2023-02-25T05:04:10.809Z,97530.41
2023-02-25T05:06:37.369Z,97530.47
2023-02-25T05:09:04.048Z,97529.66
2023-02-25T05:11:30.741Z,97526.03
2023-02-25T05:13:57.363Z,97527.13
2023-02-25T05:16:25.265Z,97526.09
2023-02-25T05:18:52.829Z,97525.09
2023-02-25T05:21:21.895Z,97520.06
2023-02-25T05:23:50.321Z,97517.47
2023-02-25T05:26:18.551Z,97521.41
2023-02-25T05:28:45.070Z,97516.34
2023-02-25T05:31:12.813Z,97513.13
2023-02-25T05:33:40.796Z,97514.56
2023-02-25T05:36:08.839Z,97512.25
2023-02-25T05:38:36.919Z,97524.00
2023-02-25T05:41:05.946Z,97518.84
2023-02-25T05:43:32.833Z,97521.69
2023-02-25T05:46:01.466Z,97537.81
2023-02-25T05:48:27.956Z,97544.94
2023-02-25T05:51:04.140Z,97545.63
2023-02-25T05:53:30.925Z,97538.13
2023-02-25T05:55:57.445Z,97530.63
2023-02-25T05:58:24.006Z,97545.16
2023-02-25T06:00:50.685Z,97542.44
2023-02-25T06:03:17.583Z,97525.06
2023-02-25T06:05:45.683Z,97523.22
2023-02-25T06:08:14.173Z,97525.44
2023-02-25T06:10:40.726Z,97521.22
2023-02-25T06:13:09.967Z,97523.94
2023-02-25T06:15:41.229Z,97524.16
2023-02-25T06:18:08.661Z,97518.03
2023-02-25T06:20:35.704Z,97528.72
2023-02-25T06:23:03.340Z,97536.78
2023-02-25T06:25:30.095Z,97540.19
2023-02-25T06:28:00.870Z,97538.34
2023-02-25T06:30:29.217Z,97547.78
2023-02-25T06:32:56.323Z,97546.72
2023-02-25T06:35:23.518Z,97551.16
2023-02-25T06:37:57.472Z,97551.00
2023-02-25T06:40:24.054Z,97557.91
2023-02-25T06:42:50.525Z,97554.50
2023-02-25T06:45:17.187Z,97554.69
2023-02-25T06:47:43.903Z,97563.84
2023-02-25T06:50:12.141Z,97560.97
2023-02-25T06:52:38.583Z,97569.03
2023-02-25T06:55:06.794Z,97569.28
2023-02-25T06:57:34.101Z,97573.91
2023-02-25T07:00:00.605Z,97574.38
2023-02-25T07:02:27.139Z,97584.03
2023-02-25T07:04:54.738Z,97587.97
2023-02-25T07:07:22.279Z,97578.75
2023-02-25T07:09:48.926Z,97581.28
2023-02-25T07:12:15.399Z,97576.06
2023-02-25T07:14:41.923Z,97576.19
2023-02-25T07:17:08.472Z,97576.72
2023-02-25T07:19:34.965Z,97579.22
2023-02-25T07:22:01.517Z,97584.22
2023-02-25T07:24:28.045Z,97592.59
2023-02-25T07:26:55.626Z,97592.56
2023-02-25T07:29:22.448Z,97581.94
2023-02-25T07:31:49.355Z,97584.69
2023-02-25T07:34:16.013Z,97573.13
2023-02-25T07:36:42.471Z,97566.56
2023-02-25T07:39:12.014Z,97567.56
2023-02-25T07:41:39.259Z,97570.81
2023-02-25T07:44:06.889Z,97566.44
2023-02-25T07:46:33.645Z,97554.41
2023-02-25T07:49:01.202Z,97567.84
2023-02-25T07:51:28.501Z,97572.47
2023-02-25T07:53:57.511Z,97583.94
2023-02-25T07:56:26.198Z,97577.50
2023-02-25T07:58:52.792Z,97587.72
2023-02-25T08:01:26.156Z,97594.41
2023-02-25T08:03:55.725Z,97597.84
2023-02-25T08:06:23.229Z,97589.03
2023-02-25T08:08:52.109Z,97591.44
2023-02-25T08:11:19.925Z,97595.75
2023-02-25T08:13:47.021Z,97597.00
2023-02-25T08:16:16.162Z,97594.28
2023-02-25T08:18:43.007Z,97588.56
2023-02-25T08:21:15.184Z,97592.84
2023-02-25T08:23:41.635Z,97590.50
2023-02-25T08:26:09.813Z,97590.72
2023-02-25T08:28:37.392Z,97591.13
2023-02-25T08:31:08.115Z,97590.78
2023-02-25T08:33:34.743Z,97597.78
2023-02-25T08:36:13.509Z,97589.50
2023-02-25T08:38:40.362Z,97597.47
2023-02-25T08:41:08.131Z,97602.88
2023-02-25T08:43:35.830Z,97596.88
2023-02-25T08:46:03.027Z,97601.53
2023-02-25T08:48:33.078Z,97601.94
2023-02-25T08:51:10.565Z,97601.06
2023-02-25T08:53:38.867Z,97601.53
2023-02-25T08:56:07.053Z,97601.28
2023-02-25T08:58:33.737Z,97596.06
2023-02-25T09:01:00.355Z,97594.28
2023-02-25T09:03:27.474Z,97590.88
2023-02-25T09:05:55.941Z,97597.81
2023-02-25T09:08:22.502Z,97595.66
2023-02-25T09:10:50.886Z,97605.81
2023-02-25T09:13:17.761Z,97611.28
2023-02-25T09:15:44.368Z,97603.13
2023-02-25T09:18:14.183Z,97599.56
2023-02-25T09:20:40.663Z,97599.81
2023-02-25T09:23:07.150Z,97595.63
2023-02-25T09:25:33.633Z,97598.34
2023-02-25T09:28:00.114Z,97601.47
2023-02-25T09:30:26.636Z,97610.16
2023-02-25T09:32:53.293Z,97603.59
2023-02-25T09:35:19.901Z,97612.88
2023-02-25T09:37:46.363Z,97618.81
2023-02-25T09:40:17.905Z,97628.69
2023-02-25T09:42:56.331Z,97626.91
2023-02-25T09:45:25.020Z,97629.97
2023-02-25T09:47:59.975Z,97630.91
2023-02-25T09:50:41.917Z,97636.13
2023-02-25T09:53:24.414Z,97627.41
2023-02-25T09:55:53.146Z,97631.81
2023-02-25T09:58:36.129Z,97628.34
2023-02-25T10:01:11.791Z,97635.91
2023-02-25T10:04:00.267Z,97630.69
2023-02-25T10:06:35.593Z,97621.63
2023-02-25T10:09:20.368Z,97625.31
2023-02-25T10:11:55.827Z,97620.09
2023-02-25T10:14:41.987Z,97613.22
2023-02-25T10:17:24.836Z,97609.22
2023-02-25T10:20:18.230Z,97605.25
2023-02-25T10:22:58.958Z,97588.22
2023-02-25T10:25:30.609Z,97590.69
2023-02-25T10:28:04.826Z,97592.75
2023-02-25T10:30:38.271Z,97595.19
2023-02-25T10:33:15.186Z,97598.44
2023-02-25T10:35:42.955Z,97602.56
2023-02-25T10:38:12.813Z,97601.66
2023-02-25T10:40:41.002Z,97597.38
2023-02-25T10:43:20.501Z,97594.66
2023-02-25T10:45:51.469Z,97588.19
2023-02-25T10:48:25.343Z,97595.72
2023-02-25T10:51:05.755Z,97595.72
2023-02-25T10:53:34.033Z,97595.22
2023-02-25T10:56:01.797Z,97592.34
2023-02-25T10:58:28.370Z,97592.47
2023-02-25T11:00:59.057Z,97600.66
2023-02-25T11:03:29.196Z,97595.16
2023-02-25T11:06:10.648Z,97605.63
2023-02-25T11:08:37.221Z,97597.94
2023-02-25T11:11:17.571Z,97610.84
2023-02-25T11:13:44.186Z,97616.13
2023-02-25T11:16:13.690Z,97616.78
2023-02-25T11:18:41.721Z,97611.66
2023-02-25T11:21:13.020Z,97595.34
2023-02-25T11:23:46.895Z,97596.66
2023-02-25T11:26:17.168Z,97598.13
2023-02-25T11:28:49.315Z,97598.50
2023-02-25T11:31:20.462Z,97599.72
2023-02-25T11:33:59.257Z,97606.66
2023-02-25T11:36:35.497Z,97609.59
2023-02-25T11:39:32.522Z,97593.88
2023-02-25T11:42:21.684Z,97594.59
2023-02-25T11:44:48.208Z,97591.72
2023-02-25T11:47:26.426Z,97566.63
2023-02-25T11:50:07.883Z,97577.13
2023-02-25T11:52:43.493Z,97578.78
2023-02-25T11:55:31.182Z,97582.13
2023-02-25T11:58:10.775Z,97580.03
2023-02-25T12:00:47.008Z,97587.59
2023-02-25T12:03:34.871Z,97583.63
2023-02-25T12:06:22.789Z,97586.69
2023-02-25T12:08:58.574Z,97582.91
2023-02-25T12:12:06.552Z,97581.28
2023-02-25T12:14:52.616Z,97563.56
2023-02-25T12:18:01.957Z,97562.63
2023-02-25T12:20:47.686Z,97560.28
2023-02-25T12:23:20.203Z,97547.75
2023-02-25T12:26:06.559Z,97547.94
2023-02-25T12:28:57.910Z,97535.66
2023-02-25T12:31:39.633Z,97538.19
2023-02-25T12:34:06.082Z,97548.09
2023-02-25T12:36:38.508Z,97536.81
2023-02-25T12:39:26.271Z,97530.09
2023-02-25T12:42:01.755Z,97531.16
2023-02-25T12:44:34.286Z,97526.47
2023-02-25T12:47:19.593Z,97519.41
2023-02-25T12:50:11.159Z,97517.44
2023-02-25T12:52:43.698Z,97522.28
2023-02-25T12:55:19.366Z,97518.94
2023-02-25T12:57:57.244Z,97520.22
2023-02-25T13:01:02.237Z,97518.97
2023-02-25T13:04:03.251Z,97522.16
2023-02-25T13:06:48.068Z,97523.22
2023-02-25T13:09:56.489Z,97520.38
2023-02-25T13:12:41.975Z,97538.22
2023-02-25T13:15:20.424Z,97531.13
2023-02-25T13:17:53.341Z,97527.38
2023-02-25T13:20:35.549Z,97527.53
2023-02-25T13:23:20.603Z,97532.28
2023-02-25T13:26:06.013Z,97531.69
2023-02-25T13:28:57.756Z,97529.00
2023-02-25T13:31:54.080Z,97536.16
2023-02-25T13:34:49.861Z,97536.75
2023-02-25T13:37:25.800Z,97556.47
2023-02-25T13:40:05.315Z,97548.03
2023-02-25T13:42:53.984Z,97541.59
2023-02-25T13:45:46.718Z,97540.22
2023-02-25T13:48:50.639Z,97543.38
2023-02-25T13:51:30.251Z,97524.59
2023-02-25T13:54:14.571Z,97522.59
2023-02-25T13:57:10.367Z,97524.72
2023-02-25T13:59:59.242Z,97530.88
2023-02-25T14:03:09.669Z,97531.06
2023-02-25T14:06:03.292Z,97548.66
2023-02-25T14:08:51.691Z,97538.50
2023-02-25T14:11:47.528Z,97553.63
2023-02-25T14:14:32.504Z,97564.16
2023-02-25T14:17:30.134Z,97576.25
2023-02-25T14:20:11.762Z,97576.25
2023-02-25T14:22:50.985Z,97569.84
2023-02-25T14:25:56.005Z,97579.97
2023-02-25T14:28:40.995Z,97583.09
2023-02-25T14:31:20.550Z,97587.47
2023-02-25T14:33:49.769Z,97585.97
2023-02-25T14:36:44.348Z,97582.97
2023-02-25T14:39:44.355Z,97585.25
2023-02-25T14:42:19.917Z,97591.94
2023-02-25T14:45:05.397Z,97574.06
2023-02-25T14:47:40.030Z,97589.00
2023-02-25T14:50:15.811Z,97585.25
2023-02-25T14:53:38.777Z,97585.16
2023-02-25T14:56:47.393Z,97583.53
2023-02-25T14:59:37.376Z,97586.41
2023-02-25T15:02:37.720Z,97591.56
2023-02-25T15:05:44.410Z,97596.66
2023-02-25T15:08:41.983Z,97619.38
2023-02-25T15:11:46.200Z,97615.44
2023-02-25T15:14:31.144Z,97622.16
2023-02-25T15:17:35.638Z,97624.34
2023-02-25T15:20:11.186Z,97633.44
2023-02-25T15:22:39.026Z,97628.22
2023-02-25T15:25:45.601Z,97639.19
2023-02-25T15:28:30.206Z,97636.13
2023-02-25T15:31:02.713Z,97647.94
2023-02-25T15:33:41.149Z,97648.78
2023-02-25T15:36:13.843Z,97649.44
2023-02-25T15:38:48.130Z,97641.91
2023-02-25T15:41:26.737Z,97655.22
2023-02-25T15:44:00.355Z,97648.94
2023-02-25T15:46:35.978Z,97650.81
2023-02-25T15:49:02.765Z,97657.50
2023-02-25T15:51:41.592Z,97664.69
2023-02-25T15:54:10.034Z,97668.56
2023-02-25T15:56:48.909Z,97671.78
2023-02-25T15:59:47.367Z,97666.72
2023-02-25T16:02:29.124Z,97666.75
2023-02-25T16:04:59.931Z,97678.63
2023-02-25T16:07:34.689Z,97684.03
2023-02-25T16:10:07.543Z,97673.69
2023-02-25T16:12:34.678Z,97689.84
2023-02-25T16:15:02.901Z,97689.03
2023-02-25T16:17:34.325Z,97687.09
2023-02-25T16:20:30.204Z,97681.94
2023-02-25T16:22:59.505Z,97687.84
2023-02-25T16:25:42.286Z,97687.84
2023-02-25T16:28:54.547Z,97694.38
2023-02-25T16:31:29.966Z,97700.75
2023-02-25T16:34:22.548Z,97710.53
2023-02-25T16:37:16.950Z,97716.91
2023-02-25T16:39:43.839Z,97711.00
2023-02-25T16:42:16.165Z,97726.66
2023-02-25T16:44:47.302Z,97728.44
2023-02-25T16:47:26.536Z,97735.47
2023-02-25T16:49:58.269Z,97741.97
2023-02-25T16:52:27.899Z,97745.75
2023-02-25T16:54:59.420Z,97758.09
2023-02-25T16:57:26.357Z,97755.97
2023-02-25T17:00:12.439Z,97747.03
2023-02-25T17:02:50.587Z,97754.03
2023-02-25T17:05:27.712Z,97753.72
2023-02-25T17:07:56.606Z,97769.34
2023-02-25T17:10:30.394Z,97770.97
2023-02-25T17:12:59.004Z,97770.00
2023-02-25T17:15:34.988Z,97769.34
2023-02-25T17:18:17.002Z,97775.84
2023-02-25T17:20:43.530Z,97776.19
2023-02-25T17:23:13.863Z,97783.69
2023-02-25T17:25:42.975Z,97789.56
2023-02-25T17:28:20.708Z,97795.25
2023-02-25T17:30:47.419Z,97796.22
2023-02-25T17:33:31.876Z,97801.91
2023-02-25T17:36:24.453Z,97821.94
2023-02-25T17:38:56.348Z,97805.81
2023-02-25T17:41:24.309Z,97811.19
2023-02-25T17:43:51.470Z,97804.19
2023-02-25T17:46:31.217Z,97816.69
2023-02-25T17:49:16.874Z,97820.44
2023-02-25T17:51:43.760Z,97819.78
2023-02-25T17:54:18.035Z,97818.94
2023-02-25T17:56:44.957Z,97817.66
2023-02-25T17:59:14.172Z,97815.50
2023-02-25T18:02:01.148Z,97809.00
2023-02-25T18:04:41.501Z,97802.94
2023-02-25T18:07:28.277Z,97817.91
2023-02-25T18:09:55.980Z,97819.34
2023-02-25T18:12:29.019Z,97839.81
2023-02-25T18:14:58.515Z,97845.84
2023-02-25T18:17:34.723Z,97853.97
2023-02-25T18:20:05.871Z,97856.72
2023-02-25T18:22:41.132Z,97861.25
2023-02-25T18:25:29.084Z,97852.66
2023-02-25T18:27:55.693Z,97859.78
2023-02-25T18:30:24.642Z,97866.72
2023-02-25T18:32:51.744Z,97866.50
2023-02-25T18:35:18.764Z,97881.19
2023-02-25T18:37:47.421Z,97885.66
2023-02-25T18:40:23.660Z,97894.44
2023-02-25T18:42:50.196Z,97897.34
2023-02-25T18:45:20.940Z,97895.78
2023-02-25T18:47:47.972Z,97905.16
2023-02-25T18:50:14.857Z,97903.13
2023-02-25T18:52:41.569Z,97908.00
2023-02-25T18:55:16.643Z,97904.44
2023-02-25T18:57:43.337Z,97911.13
2023-02-25T19:00:11.146Z,97912.25
2023-02-25T19:02:56.640Z,97909.28
2023-02-25T19:05:24.905Z,97917.03
2023-02-25T19:07:52.186Z,97914.94
2023-02-25T19:10:22.552Z,97916.56
2023-02-25T19:12:50.767Z,97916.00
2023-02-25T19:15:21.661Z,97922.19
2023-02-25T19:17:49.252Z,97924.03
2023-02-25T19:20:18.370Z,97922.59
2023-02-25T19:22:47.364Z,97931.97
2023-02-25T19:25:27.496Z,97933.78
2023-02-25T19:27:55.940Z,97940.94
2023-02-25T19:30:26.004Z,97943.03
2023-02-25T19:32:52.572Z,97945.59
2023-02-25T19:35:19.101Z,97960.81
2023-02-25T19:37:45.623Z,97960.69
2023-02-25T19:40:14.494Z,97962.31
2023-02-25T19:42:42.830Z,97967.00
2023-02-25T19:45:12.961Z,97967.75
2023-02-25T19:47:39.585Z,97972.72
2023-02-25T19:50:07.158Z,97973.53
2023-02-25T19:52:33.896Z,97988.44
2023-02-25T19:55:01.225Z,97992.63
2023-02-25T19:57:28.158Z,97999.53
2023-02-25T19:59:54.704Z,97996.59
2023-02-25T20:02:21.141Z,97992.78
2023-02-25T20:04:47.732Z,98007.22
2023-02-25T20:07:15.471Z,98017.25
2023-02-25T20:09:42.379Z,98010.25
2023-02-25T20:12:09.355Z,98020.00
2023-02-25T20:14:35.942Z,98018.84
2023-02-25T20:17:02.485Z,98024.28
2023-02-25T20:19:32.480Z,98028.84
2023-02-25T20:22:01.324Z,98023.84
2023-02-25T20:24:28.721Z,98029.88
2023-02-25T20:26:55.918Z,98027.63
2023-02-25T20:29:22.729Z,98037.78
2023-02-25T20:31:49.291Z,98032.03
2023-02-25T20:34:19.672Z,98033.59
2023-02-25T20:37:04.316Z,98041.53
2023-02-25T20:39:45.442Z,98044.19
2023-02-25T20:42:15.299Z,98041.25
2023-02-25T20:44:41.933Z,98053.94
2023-02-25T20:47:16.374Z,98050.38
2023-02-25T20:49:42.928Z,98049.47
2023-02-25T20:52:11.918Z,98061.78
2023-02-25T20:54:38.378Z,98053.88
2023-02-25T20:57:04.899Z,98061.03
2023-02-25T20:59:31.426Z,98068.41
2023-02-25T21:02:00.136Z,98068.41
2023-02-25T21:04:26.617Z,98073.31
2023-02-25T21:06:53.324Z,98069.63
2023-02-25T21:09:19.858Z,98080.16
2023-02-25T21:11:46.331Z,98074.13
2023-02-25T21:14:12.793Z,98075.59
2023-02-25T21:16:39.659Z,98078.91
2023-02-25T21:19:07.868Z,98075.09
2023-02-25T21:21:38.291Z,98074.44
2023-02-25T21:24:05.953Z,98082.19
2023-02-25T21:26:32.723Z,98082.47
2023-02-25T21:28:59.808Z,98095.72
2023-02-25T21:31:26.628Z,98091.50
2023-02-25T21:33:53.323Z,98098.63
2023-02-25T21:36:19.774Z,98094.94
2023-02-25T21:38:46.703Z,98096.19
2023-02-25T21:41:14.919Z,98090.16
2023-02-25T21:43:42.471Z,98095.78
2023-02-25T21:46:12.651Z,98099.91
2023-02-25T21:48:40.762Z,98093.19
2023-02-25T21:51:12.874Z,98089.25
2023-02-25T21:53:39.336Z,98089.94
2023-02-25T21:56:15.728Z,98091.97
2023-02-25T21:58:42.746Z,98094.00
2023-02-25T22:01:17.244Z,98090.59
2023-02-25T22:03:44.296Z,98099.34
2023-02-25T22:06:11.389Z,98095.25
2023-02-25T22:08:40.208Z,98095.38
2023-02-25T22:11:21.211Z,98091.97
2023-02-25T22:13:47.892Z,98104.09
2023-02-25T22:16:15.331Z,98103.56
2023-02-25T22:18:41.909Z,98109.53
2023-02-25T22:21:12.800Z,98114.19
2023-02-25T22:23:41.168Z,98111.84
2023-02-25T22:26:13.530Z,98115.25
2023-02-25T22:28:41.173Z,98110.34
2023-02-25T22:31:16.816Z,98110.09
2023-02-25T22:33:44.425Z,98115.16
2023-02-25T22:36:12.313Z,98112.47
2023-02-25T22:38:40.808Z,98110.72
2023-02-25T22:41:12.655Z,98109.63
2023-02-25T22:43:39.170Z,98120.78
2023-02-25T22:46:11.471Z,98119.31
2023-02-25T22:48:39.826Z,98122.16
2023-02-25T22:51:09.279Z,98125.41
2023-02-25T22:53:37.201Z,98126.50
2023-02-25T22:56:06.460Z,98131.34
2023-02-25T22:58:33.240Z,98140.69
2023-02-25T23:00:59.785Z,98128.72
2023-02-25T23:03:26.284Z,98135.91
2023-02-25T23:05:54.665Z,98135.22
2023-02-25T23:08:22.644Z,98138.00
2023-02-25T23:10:49.355Z,98136.97
2023-02-25T23:13:15.929Z,98138.66
2023-02-25T23:15:42.693Z,98141.59
2023-02-25T23:18:09.730Z,98147.25
2023-02-25T23:20:38.130Z,98149.34
2023-02-25T23:23:06.650Z,98151.22
2023-02-25T23:25:35.573Z,98154.53
2023-02-25T23:28:02.943Z,98150.38
2023-02-25T23:30:29.601Z,98159.47
2023-02-25T23:32:57.417Z,98155.28
2023-02-25T23:35:24.516Z,98162.06
2023-02-25T23:37:51.160Z,98163.38
2023-02-25T23:40:17.840Z,98163.03
2023-02-25T23:42:44.360Z,98166.91
2023-02-25T23:45:14.007Z,98164.66
2023-02-25T23:47:42.854Z,98162.94
2023-02-25T23:50:17.849Z,98164.22
2023-02-25T23:52:45.955Z,98162.91
2023-02-25T23:55:14.079Z,98164.56
2023-02-25T23:57:40.632Z,98161.03
